Time;durP1;ratioP1;P1;durP2;ratioP2;P2;SDS_P1;SDS_P2;PMS_P1;PMS_P2;Temp;Humidity;BMP_temperature;BMP_pressure;BME280_temperature;BME280_humidity;BME280_pressure;Samples;Min_cycle;Max_cycle;Signal;HPM_P1;HPM_P2
2023/12/23 11:07:13;;;;;;;0.90;0.50;;;5.70;99.90;;;;;;5122610;27;20394;-76
2023/12/23 11:09:41;;;;;;;0.95;0.20;;;5.80;99.90;;;;;;5086508;28;20051;-78
2023/12/23 11:12:08;;;;;;;1.05;0.30;;;5.80;99.90;;;;;;5122359;27;20039;-77
2023/12/23 11:14:35;;;;;;;0.20;0.13;;;5.80;99.90;;;;;;5114502;27;20062;-77
2023/12/23 11:17:00;;;;;;;1.17;0.28;;;5.80;99.90;;;;;;5108302;28;20514;-76
2023/12/23 11:19:26;;;;;;;0.75;0.22;;;5.80;99.90;;;;;;5091077;28;20047;-77
2023/12/23 11:22:22;;;;;;;0.47;0.45;;;5.80;99.90;;;;;;5085955;28;20116;-77
2023/12/23 11:24:47;;;;;;;0.88;0.80;;;5.90;99.90;;;;;;5091050;28;20043;-77
2023/12/23 11:27:33;;;;;;;1.05;0.60;;;5.90;99.90;;;;;;5115347;27;20035;-77
2023/12/23 11:30:00;;;;;;;0.95;0.28;;;5.90;99.90;;;;;;5127783;27;20515;-77
2023/12/23 11:32:30;;;;;;;0.77;0.25;;;5.90;99.90;;;;;;5087760;28;20058;-78
2023/12/23 11:34:58;;;;;;;0.22;0.10;;;5.90;99.90;;;;;;5093715;28;20119;-77
2023/12/23 11:37:49;;;;;;;0.73;0.40;;;6.00;99.90;;;;;;5067184;28;20028;-77
2023/12/23 11:40:18;;;;;;;1.10;0.30;;;6.00;99.90;;;;;;5096928;28;20043;-77
2023/12/23 11:42:44;;;;;;;0.73;0.35;;;6.10;99.90;;;;;;5098172;28;20031;-77
2023/12/23 11:45:11;;;;;;;0.68;0.30;;;6.10;99.90;;;;;;5096221;28;20035;-76
2023/12/23 11:47:37;;;;;;;0.95;0.43;;;6.10;99.90;;;;;;5096299;28;20059;-77
2023/12/23 11:50:04;;;;;;;0.60;0.20;;;6.10;99.90;;;;;;5095601;28;20473;-77
2023/12/23 11:52:29;;;;;;;0.20;0.10;;;6.20;99.90;;;;;;5096630;28;20293;-77
2023/12/23 11:54:55;;;;;;;0.28;0.20;;;6.20;99.90;;;;;;5090349;28;20149;-77
2023/12/23 11:57:21;;;;;;;1.05;0.40;;;6.30;99.90;;;;;;5091669;28;20028;-77
2023/12/23 11:59:48;;;;;;;0.40;0.17;;;6.30;99.90;;;;;;5093214;28;21435;-76
2023/12/23 12:02:14;;;;;;;1.13;0.45;;;6.40;99.90;;;;;;5089122;28;20043;-78
2023/12/23 12:04:40;;;;;;;0.10;0.10;;;6.40;99.90;;;;;;5096089;28;20036;-77
2023/12/23 12:07:06;;;;;;;0.57;0.22;;;6.50;99.90;;;;;;5089487;28;20036;-77
2023/12/23 12:09:32;;;;;;;0.20;0.20;;;6.60;99.90;;;;;;5121070;27;20096;-77
2023/12/23 12:11:59;;;;;;;0.35;0.28;;;6.70;99.90;;;;;;5064299;28;20105;-77
2023/12/23 12:14:26;;;;;;;1.17;0.15;;;6.80;99.90;;;;;;5070434;28;20115;-69
2023/12/23 12:16:52;;;;;;;1.38;0.47;;;6.90;99.90;;;;;;5067216;28;20054;-69
2023/12/23 12:19:17;;;;;;;1.10;0.52;;;7.10;99.90;;;;;;5079114;28;20039;-77
2023/12/23 12:21:43;;;;;;;0.93;0.50;;;7.30;99.90;;;;;;5051826;28;20040;-76
2023/12/23 12:24:10;;;;;;;0.60;0.45;;;7.40;99.90;;;;;;5089594;28;20036;-76
2023/12/23 12:26:35;;;;;;;0.82;0.32;;;7.70;99.90;;;;;;5061973;28;20067;-77
2023/12/23 12:29:02;;;;;;;0.30;0.20;;;7.80;99.90;;;;;;5099464;27;20063;-77
2023/12/23 12:31:29;;;;;;;0.45;0.30;;;7.80;99.90;;;;;;5104919;27;20054;-77
2023/12/23 12:33:55;;;;;;;1.02;0.30;;;7.90;99.90;;;;;;5075483;28;20038;-76
2023/12/23 12:36:21;;;;;;;3.83;0.73;;;8.00;99.90;;;;;;5079798;28;20032;-79
2023/12/23 12:38:47;;;;;;;2.40;0.57;;;8.00;99.90;;;;;;5073539;28;20492;-78
2023/12/23 12:41:13;;;;;;;0.60;0.43;;;8.10;99.90;;;;;;5115052;27;20073;-77
2023/12/23 12:43:40;;;;;;;0.50;0.40;;;8.10;99.90;;;;;;5056094;28;20035;-77
2023/12/23 12:46:06;;;;;;;0.93;0.30;;;8.10;99.90;;;;;;5056875;28;20119;-77
2023/12/23 12:48:32;;;;;;;1.55;0.32;;;8.10;99.90;;;;;;5085230;28;20393;-76
2023/12/23 12:50:58;;;;;;;0.80;0.38;;;8.20;99.90;;;;;;5072364;28;20066;-76
2023/12/23 12:53:25;;;;;;;0.35;0.30;;;8.20;99.90;;;;;;5071578;28;20266;-76
2023/12/23 12:55:50;;;;;;;0.30;0.30;;;8.20;99.90;;;;;;5104684;27;20085;-77
2023/12/23 12:58:17;;;;;;;1.48;0.82;;;8.20;99.90;;;;;;5049406;28;20409;-76
2023/12/23 13:00:42;;;;;;;4.35;0.50;;;8.20;99.90;;;;;;5097554;28;20044;-77
2023/12/23 13:05:14;;;;;;;0.30;0.20;;;8.20;99.90;;;;;;5093407;27;20135;-75
2023/12/23 13:07:40;;;;;;;2.63;0.55;;;8.30;99.90;;;;;;5095179;28;20477;-75
2023/12/23 13:10:06;;;;;;;0.93;0.63;;;8.30;99.90;;;;;;5095475;28;20039;-74
2023/12/23 13:12:32;;;;;;;2.20;0.20;;;8.30;99.90;;;;;;5096114;28;20035;-73
2023/12/23 13:14:58;;;;;;;2.28;0.80;;;8.30;99.90;;;;;;5132103;27;20039;-73
2023/12/23 13:17:23;;;;;;;2.20;0.45;;;8.30;99.90;;;;;;5097513;28;20040;-75
2023/12/23 13:19:49;;;;;;;1.65;0.55;;;8.30;99.90;;;;;;5094171;28;20130;-73
2023/12/23 13:22:14;;;;;;;1.80;0.57;;;8.30;99.90;;;;;;5091007;28;20040;-73
2023/12/23 13:24:40;;;;;;;3.25;0.40;;;8.30;99.90;;;;;;5098267;28;20043;-73
2023/12/23 13:27:06;;;;;;;3.00;0.30;;;8.30;99.90;;;;;;5098474;28;20047;-73
2023/12/23 13:29:31;;;;;;;3.55;0.45;;;8.30;99.90;;;;;;5083559;28;20047;-73
2023/12/23 13:31:57;;;;;;;1.45;0.30;;;8.40;99.90;;;;;;5081593;28;20438;-73
2023/12/23 13:34:23;;;;;;;1.38;0.80;;;8.30;99.90;;;;;;5094439;28;20116;-73
2023/12/23 13:36:50;;;;;;;2.30;0.57;;;8.40;99.90;;;;;;5127007;27;20405;-73
2023/12/23 13:39:15;;;;;;;1.60;0.60;;;8.40;99.90;;;;;;5093019;28;20054;-73
2023/12/23 13:41:41;;;;;;;1.45;0.20;;;8.40;99.90;;;;;;5073203;28;20040;-73
2023/12/23 13:44:07;;;;;;;4.50;0.47;;;8.40;99.90;;;;;;5095437;28;20123;-73
2023/12/23 13:46:33;;;;;;;1.25;0.57;;;8.40;99.90;;;;;;5091055;28;20036;-73
2023/12/23 13:48:58;;;;;;;1.60;0.60;;;8.50;99.90;;;;;;5097392;28;20042;-73
2023/12/23 13:51:24;;;;;;;1.85;0.40;;;8.50;99.90;;;;;;5096395;28;20409;-73
2023/12/23 13:53:49;;;;;;;1.15;0.52;;;8.50;99.90;;;;;;5081977;28;20036;-73
2023/12/23 13:56:15;;;;;;;1.40;0.30;;;8.50;99.90;;;;;;5098362;28;20445;-73
2023/12/23 13:58:41;;;;;;;4.90;1.10;;;8.50;99.90;;;;;;5097428;28;20042;-73
2023/12/23 14:01:06;;;;;;;6.22;0.95;;;8.60;99.90;;;;;;5074711;28;20333;-73
2023/12/23 14:03:32;;;;;;;1.35;0.55;;;8.60;99.90;;;;;;5098169;28;20042;-74
2023/12/23 14:06:00;;;;;;;1.85;0.40;;;8.70;99.90;;;;;;5082018;28;20036;-73
2023/12/23 14:08:26;;;;;;;2.55;1.20;;;8.70;99.90;;;;;;5133599;27;20039;-73
2023/12/23 14:10:52;;;;;;;0.77;0.22;;;8.70;99.90;;;;;;5097976;28;20035;-74
2023/12/23 14:13:18;;;;;;;0.65;0.38;;;8.70;99.90;;;;;;5096805;28;20409;-73
2023/12/23 14:15:43;;;;;;;3.08;0.90;;;8.70;99.90;;;;;;5088478;28;20081;-74
2023/12/23 14:18:09;;;;;;;5.68;1.08;;;8.70;99.90;;;;;;5082882;28;20048;-74
2023/12/23 14:20:35;;;;;;;1.33;0.40;;;8.70;99.90;;;;;;5067776;28;20373;-73
2023/12/23 14:23:01;;;;;;;2.88;0.60;;;8.70;99.90;;;;;;5060320;28;20059;-74
2023/12/23 14:25:27;;;;;;;0.55;0.40;;;8.60;99.90;;;;;;5086667;28;20028;-73
2023/12/23 14:27:54;;;;;;;1.02;0.32;;;8.60;99.90;;;;;;5083644;28;20110;-73
2023/12/23 14:30:19;;;;;;;2.33;0.68;;;8.60;99.90;;;;;;5078137;28;20477;-73
2023/12/23 14:32:45;;;;;;;0.47;0.30;;;8.60;99.90;;;;;;5085388;28;20028;-73
2023/12/23 14:35:11;;;;;;;1.70;0.63;;;8.60;99.90;;;;;;5116850;27;20536;-73
2023/12/23 14:37:39;;;;;;;1.50;0.55;;;8.60;99.90;;;;;;5082494;28;20081;-73
2023/12/23 14:40:06;;;;;;;0.40;0.30;;;8.50;99.90;;;;;;5085729;28;20128;-73
2023/12/23 14:42:32;;;;;;;1.10;0.57;;;8.60;99.90;;;;;;5083860;28;20039;-73
2023/12/23 14:44:58;;;;;;;2.63;0.25;;;8.50;99.90;;;;;;5084653;28;20051;-73
2023/12/23 14:47:23;;;;;;;0.95;0.45;;;8.50;99.90;;;;;;5080635;28;20028;-73
2023/12/23 14:49:49;;;;;;;2.80;0.80;;;8.50;99.90;;;;;;5085403;28;20162;-73
2023/12/23 14:52:15;;;;;;;1.23;0.50;;;8.50;99.90;;;;;;5082834;28;20501;-73
2023/12/23 14:54:42;;;;;;;0.95;0.38;;;8.50;99.90;;;;;;5102867;27;20047;-73
2023/12/23 14:57:08;;;;;;;1.30;0.43;;;8.50;99.90;;;;;;5083707;28;20214;-73
2023/12/23 14:59:33;;;;;;;1.73;0.20;;;8.50;99.90;;;;;;5124563;27;20338;-73
2023/12/23 15:02:01;;;;;;;4.03;0.45;;;8.50;99.90;;;;;;5085024;28;20217;-73
2023/12/23 15:04:27;;;;;;;0.28;0.10;;;8.50;99.90;;;;;;5065103;28;20082;-73
2023/12/23 15:06:52;;;;;;;0.50;0.20;;;8.50;99.90;;;;;;5058343;28;20066;-73
2023/12/23 15:09:18;;;;;;;1.85;0.30;;;8.50;99.90;;;;;;5081867;28;20073;-74
2023/12/23 15:11:44;;;;;;;1.55;0.40;;;8.50;99.90;;;;;;5117579;27;20510;-74
2023/12/23 15:14:10;;;;;;;1.55;0.28;;;8.50;99.90;;;;;;5064158;28;20053;-74
2023/12/23 15:16:35;;;;;;;0.95;0.17;;;8.50;99.90;;;;;;5097169;28;20097;-73
2023/12/23 15:19:03;;;;;;;0.65;0.30;;;8.50;99.90;;;;;;5079243;28;20458;-73
2023/12/23 15:21:32;;;;;;;5.47;0.75;;;8.50;99.90;;;;;;5114629;27;20440;-74
2023/12/23 15:23:58;;;;;;;0.60;0.30;;;8.50;99.90;;;;;;5084738;28;20486;-73
2023/12/23 15:26:27;;;;;;;1.20;0.40;;;8.50;99.90;;;;;;5063643;28;20562;-73
2023/12/23 15:28:52;;;;;;;2.50;0.30;;;8.50;99.90;;;;;;5082600;28;20067;-73
2023/12/23 15:31:18;;;;;;;3.05;0.40;;;8.50;99.90;;;;;;5081814;28;20063;-74
2023/12/23 15:33:44;;;;;;;6.72;1.02;;;8.50;99.90;;;;;;5116283;27;20416;-73
2023/12/23 15:36:11;;;;;;;3.72;0.63;;;8.50;99.90;;;;;;5080980;28;20071;-73
2023/12/23 15:38:37;;;;;;;2.00;0.70;;;8.50;99.90;;;;;;5084668;28;20044;-73
2023/12/23 15:41:03;;;;;;;1.65;0.50;;;8.50;99.90;;;;;;5065994;28;20566;-73
2023/12/23 15:43:28;;;;;;;3.00;0.40;;;8.50;99.90;;;;;;5082476;28;20064;-73
2023/12/23 15:45:54;;;;;;;2.40;0.30;;;8.50;99.90;;;;;;5082982;28;20490;-74
2023/12/23 15:48:20;;;;;;;1.30;0.50;;;8.50;99.90;;;;;;5057776;28;20035;-73
2023/12/23 15:50:45;;;;;;;4.00;2.30;;;8.50;99.90;;;;;;5065435;28;20028;-73
2023/12/23 15:53:11;;;;;;;1.90;1.38;;;8.50;99.90;;;;;;5083191;28;20046;-78
2023/12/23 15:55:37;;;;;;;0.95;0.52;;;8.50;99.90;;;;;;5086945;28;20042;-73
2023/12/23 15:58:04;;;;;;;2.30;0.65;;;8.50;99.90;;;;;;5102152;28;21493;-72
2023/12/23 16:00:30;;;;;;;3.20;0.47;;;8.50;99.90;;;;;;5063195;28;20070;-73
2023/12/23 16:02:56;;;;;;;0.60;0.40;;;8.60;99.90;;;;;;5097188;28;20118;-72
2023/12/23 16:05:22;;;;;;;1.70;0.40;;;8.60;99.90;;;;;;5119573;27;20039;-73
2023/12/23 16:07:48;;;;;;;2.03;0.30;;;8.60;99.90;;;;;;5086589;28;20093;-73
2023/12/23 16:10:14;;;;;;;3.83;0.80;;;8.60;99.90;;;;;;5089059;28;20721;-73
2023/12/23 16:12:39;;;;;;;4.13;0.30;;;8.60;99.90;;;;;;5085420;28;20036;-73
2023/12/23 16:15:06;;;;;;;1.35;0.50;;;8.60;99.90;;;;;;5083037;28;20082;-74
2023/12/23 16:17:31;;;;;;;3.55;1.30;;;8.60;99.90;;;;;;5085539;28;20392;-73
2023/12/23 16:19:57;;;;;;;1.58;0.60;;;8.60;99.90;;;;;;5083863;28;20065;-73
2023/12/23 16:22:23;;;;;;;0.55;0.30;;;8.60;99.90;;;;;;5082410;28;20041;-73
2023/12/23 16:24:48;;;;;;;0.77;0.50;;;8.60;99.90;;;;;;5083150;28;20047;-73
2023/12/23 16:27:14;;;;;;;0.40;0.28;;;8.60;99.90;;;;;;5082133;28;20036;-73
2023/12/23 16:29:41;;;;;;;5.80;0.45;;;8.60;99.90;;;;;;5099481;28;20433;-73
2023/12/23 16:32:06;;;;;;;1.75;0.52;;;8.60;99.90;;;;;;5080781;28;20044;-73
2023/12/23 16:34:32;;;;;;;0.52;0.22;;;8.60;99.90;;;;;;5081333;28;20184;-73
2023/12/23 16:36:57;;;;;;;1.75;0.30;;;8.60;99.90;;;;;;5078092;28;20044;-73
2023/12/23 16:39:23;;;;;;;0.68;0.30;;;8.60;99.90;;;;;;5083323;28;20106;-73
2023/12/23 16:41:50;;;;;;;0.73;0.40;;;8.60;99.90;;;;;;5081859;28;20156;-74
2023/12/23 16:44:15;;;;;;;0.75;0.38;;;8.60;99.90;;;;;;5082672;28;20048;-73
2023/12/23 16:46:41;;;;;;;0.40;0.13;;;8.60;99.90;;;;;;5080196;28;20128;-73
2023/12/23 16:49:06;;;;;;;1.42;0.40;;;8.60;99.90;;;;;;5096662;28;20025;-73
2023/12/23 16:51:32;;;;;;;0.82;0.30;;;8.70;99.90;;;;;;5114645;27;20498;-73
2023/12/23 16:53:58;;;;;;;1.65;0.60;;;8.70;99.90;;;;;;5082247;28;20036;-73
2023/12/23 16:56:23;;;;;;;1.65;0.50;;;8.70;99.90;;;;;;5078284;28;20128;-73
2023/12/23 16:58:50;;;;;;;0.85;0.40;;;8.70;99.90;;;;;;5081887;28;20115;-73
2023/12/23 17:01:16;;;;;;;1.63;0.50;;;8.70;99.90;;;;;;5064853;28;20032;-72
2023/12/23 17:03:42;;;;;;;3.83;0.60;;;8.60;99.90;;;;;;5062638;28;20043;-72
2023/12/23 17:06:08;;;;;;;1.38;0.80;;;8.70;99.90;;;;;;5068716;28;20044;-72
2023/12/23 17:08:34;;;;;;;2.08;1.30;;;8.70;99.90;;;;;;5076199;28;20489;-73
2023/12/23 17:11:00;;;;;;;3.22;1.30;;;8.70;99.90;;;;;;5115610;27;20036;-73
2023/12/23 17:13:25;;;;;;;3.45;0.30;;;8.70;99.90;;;;;;5115542;27;20089;-73
2023/12/23 17:15:51;;;;;;;1.35;0.75;;;8.70;99.90;;;;;;5082244;28;20447;-72
2023/12/23 17:18:16;;;;;;;0.70;0.32;;;8.70;99.90;;;;;;5098577;28;20485;-73
2023/12/23 17:20:42;;;;;;;0.75;0.43;;;8.70;99.90;;;;;;5078090;28;20059;-73
2023/12/23 17:23:09;;;;;;;3.75;0.30;;;8.70;99.90;;;;;;5082272;28;20107;-73
2023/12/23 17:25:35;;;;;;;1.80;0.52;;;8.70;99.90;;;;;;5100239;28;20050;-72
2023/12/23 17:28:00;;;;;;;3.33;0.40;;;8.70;99.90;;;;;;5080855;28;20853;-73
2023/12/23 17:30:26;;;;;;;1.98;0.52;;;8.70;99.90;;;;;;5063057;28;20066;-74
2023/12/23 17:32:52;;;;;;;1.20;0.40;;;8.70;99.90;;;;;;5082349;28;20039;-73
2023/12/23 17:35:17;;;;;;;0.75;0.38;;;8.80;99.90;;;;;;5103037;28;20044;-73
2023/12/23 17:37:43;;;;;;;0.10;0.10;;;8.80;99.90;;;;;;5087445;28;20036;-73
2023/12/23 17:40:09;;;;;;;1.42;0.85;;;8.80;99.90;;;;;;5062384;28;20028;-73
2023/12/23 17:42:35;;;;;;;1.25;0.40;;;8.80;99.90;;;;;;5061389;28;20141;-73
2023/12/23 17:45:02;;;;;;;0.55;0.40;;;8.80;99.90;;;;;;5095549;28;20513;-73
2023/12/23 17:47:28;;;;;;;0.45;0.30;;;8.80;99.90;;;;;;5078102;28;20283;-73
2023/12/23 17:49:53;;;;;;;1.17;0.45;;;8.80;99.90;;;;;;5073505;28;20173;-73
2023/12/23 17:52:19;;;;;;;2.75;1.70;;;8.80;99.90;;;;;;5119315;27;20089;-73
2023/12/23 17:54:46;;;;;;;3.67;0.77;;;8.80;99.90;;;;;;5084807;28;20044;-73
2023/12/23 17:57:14;;;;;;;8.20;1.25;;;8.80;99.90;;;;;;5061384;28;20036;-73
2023/12/23 17:59:41;;;;;;;1.25;0.55;;;8.80;99.90;;;;;;5085533;28;20048;-73
2023/12/23 18:02:06;;;;;;;2.03;0.40;;;8.90;99.90;;;;;;5082637;28;20051;-72
2023/12/23 18:04:32;;;;;;;0.50;0.30;;;8.80;99.90;;;;;;5115477;27;20036;-72
2023/12/23 18:06:57;;;;;;;3.85;0.82;;;8.80;99.90;;;;;;5084854;28;20028;-73
2023/12/23 18:09:23;;;;;;;4.07;1.10;;;8.80;99.90;;;;;;5086315;28;20068;-73
2023/12/23 18:11:49;;;;;;;2.25;0.60;;;8.80;99.90;;;;;;5071145;28;20109;-72
2023/12/23 18:14:14;;;;;;;0.32;0.30;;;8.80;99.90;;;;;;5088385;28;20028;-73
2023/12/23 18:16:40;;;;;;;0.90;0.45;;;8.80;99.90;;;;;;5085546;28;20540;-73
2023/12/23 18:19:06;;;;;;;0.82;0.35;;;8.80;99.90;;;;;;5085674;28;20032;-73
2023/12/23 18:21:32;;;;;;;1.17;0.40;;;8.80;99.90;;;;;;5112703;27;20040;-73
2023/12/23 18:23:58;;;;;;;2.00;0.95;;;8.80;99.90;;;;;;5103042;27;20043;-73
2023/12/23 18:26:23;;;;;;;0.40;0.38;;;8.80;99.90;;;;;;5083865;28;20130;-73
2023/12/23 18:28:49;;;;;;;6.00;1.52;;;8.80;99.90;;;;;;5081429;28;20043;-72
2023/12/23 18:31:15;;;;;;;1.65;0.70;;;8.80;99.90;;;;;;5085014;28;20082;-73
2023/12/23 18:33:40;;;;;;;0.70;0.45;;;8.80;99.90;;;;;;5086930;28;20437;-72
2023/12/23 18:36:06;;;;;;;1.00;0.50;;;8.80;99.90;;;;;;5116572;27;20252;-73
2023/12/23 18:38:31;;;;;;;2.40;0.50;;;8.80;99.90;;;;;;5118356;27;20036;-73
2023/12/23 18:40:57;;;;;;;1.27;0.52;;;8.80;99.90;;;;;;5100031;27;20032;-73
2023/12/23 18:43:23;;;;;;;0.43;0.25;;;8.80;99.90;;;;;;5116055;27;20036;-73
2023/12/23 18:45:48;;;;;;;0.60;0.20;;;8.80;99.90;;;;;;5085135;28;20173;-73
2023/12/23 18:48:15;;;;;;;1.30;0.50;;;8.80;99.90;;;;;;5065189;28;20034;-72
2023/12/23 18:50:40;;;;;;;1.40;0.45;;;8.80;99.90;;;;;;5114903;27;20548;-73
2023/12/23 18:53:06;;;;;;;0.40;0.22;;;8.80;99.90;;;;;;5119269;27;20164;-73
2023/12/23 18:55:32;;;;;;;1.85;0.65;;;8.80;99.90;;;;;;5119224;27;20024;-72
2023/12/23 18:57:58;;;;;;;0.63;0.30;;;8.80;99.90;;;;;;5084329;28;20628;-73
2023/12/23 19:00:24;;;;;;;0.50;0.30;;;8.80;99.90;;;;;;5062684;28;20051;-73
2023/12/23 19:02:49;;;;;;;2.63;0.40;;;8.80;99.90;;;;;;5083596;28;20053;-72
2023/12/23 19:05:16;;;;;;;2.28;0.75;;;8.90;99.90;;;;;;5097762;28;20036;-73
2023/12/23 19:07:42;;;;;;;1.20;0.30;;;8.80;99.90;;;;;;5080953;28;20393;-73
2023/12/23 19:10:07;;;;;;;0.57;0.40;;;8.80;99.90;;;;;;5118522;27;20497;-73
2023/12/23 19:12:33;;;;;;;0.28;0.20;;;8.90;99.90;;;;;;5100957;28;20032;-73
2023/12/23 19:14:59;;;;;;;0.82;0.38;;;8.90;99.90;;;;;;5084597;28;20470;-73
2023/12/23 19:17:25;;;;;;;1.77;0.30;;;8.90;99.90;;;;;;5082522;28;20036;-73
2023/12/23 19:19:50;;;;;;;2.53;0.90;;;8.90;99.90;;;;;;5066962;28;20036;-73
2023/12/23 19:22:17;;;;;;;0.35;0.20;;;8.90;99.90;;;;;;5081657;28;20044;-73
2023/12/23 19:24:44;;;;;;;0.75;0.35;;;8.90;99.90;;;;;;5101704;28;20497;-73
2023/12/23 19:27:09;;;;;;;1.20;0.57;;;8.90;99.90;;;;;;5082135;28;20036;-73
2023/12/23 19:29:40;;;;;;;8.70;0.40;;;8.90;99.90;;;;;;5079474;28;20039;-72
2023/12/23 19:32:06;;;;;;;0.73;0.30;;;8.90;99.90;;;;;;5084903;28;20401;-73
2023/12/23 19:34:32;;;;;;;1.15;0.38;;;8.90;99.90;;;;;;5082245;28;20044;-73
2023/12/23 19:36:58;;;;;;;0.50;0.30;;;8.90;99.90;;;;;;5115612;27;20435;-73
2023/12/23 19:39:23;;;;;;;2.28;0.50;;;8.90;99.90;;;;;;5084348;28;20036;-73
2023/12/23 19:41:49;;;;;;;1.58;0.63;;;8.90;99.90;;;;;;5082905;28;20044;-73
2023/12/23 19:44:15;;;;;;;0.50;0.35;;;8.90;99.90;;;;;;5063619;28;21862;-73
2023/12/23 19:46:40;;;;;;;0.45;0.20;;;8.90;99.90;;;;;;5081868;28;20040;-73
2023/12/23 19:49:06;;;;;;;2.03;0.82;;;9.00;99.90;;;;;;5081321;28;20040;-74
2023/12/23 19:51:33;;;;;;;0.90;0.25;;;8.90;99.90;;;;;;5063109;28;20035;-72
2023/12/23 19:53:59;;;;;;;0.85;0.28;;;8.90;99.90;;;;;;5082298;28;20040;-73
2023/12/23 19:56:24;;;;;;;1.58;0.28;;;9.00;99.90;;;;;;5112337;27;20059;-73
2023/12/23 19:58:50;;;;;;;0.68;0.20;;;9.00;99.90;;;;;;5116309;27;20119;-73
2023/12/23 20:01:16;;;;;;;0.55;0.55;;;9.00;99.90;;;;;;5116843;27;20583;-72
2023/12/23 20:03:41;;;;;;;0.22;0.20;;;9.00;99.90;;;;;;5080567;28;20040;-73
2023/12/23 20:06:09;;;;;;;0.63;0.20;;;9.00;99.90;;;;;;5110795;27;20040;-73
2023/12/23 20:08:35;;;;;;;1.35;0.63;;;9.00;99.90;;;;;;5078228;28;20028;-73
2023/12/23 20:11:02;;;;;;;0.63;0.43;;;9.00;99.90;;;;;;5092805;28;20086;-73
2023/12/23 20:13:28;;;;;;;0.17;0.15;;;8.90;99.90;;;;;;5097702;28;20054;-73
2023/12/23 20:15:53;;;;;;;0.88;0.32;;;9.00;99.90;;;;;;5078152;28;20079;-73
2023/12/23 20:18:19;;;;;;;1.90;0.70;;;8.90;99.90;;;;;;5080291;28;20479;-73
2023/12/23 20:20:45;;;;;;;2.65;0.15;;;8.90;99.90;;;;;;5095702;28;20046;-73
2023/12/23 20:23:10;;;;;;;0.30;0.10;;;8.90;99.90;;;;;;5078011;28;20040;-73
2023/12/23 20:25:36;;;;;;;0.90;0.30;;;9.00;99.90;;;;;;5080188;28;20039;-73
2023/12/23 20:28:02;;;;;;;2.20;0.40;;;8.90;99.90;;;;;;5112478;27;20046;-73
2023/12/23 20:30:27;;;;;;;2.25;0.35;;;8.90;99.90;;;;;;5116345;27;20032;-73
2023/12/23 20:32:53;;;;;;;2.05;0.55;;;8.90;99.90;;;;;;5115476;27;20089;-73
2023/12/23 20:35:19;;;;;;;0.60;0.10;;;8.90;99.90;;;;;;5072650;28;20048;-74
2023/12/23 20:37:44;;;;;;;0.90;0.30;;;8.90;99.90;;;;;;5075567;28;20044;-73
2023/12/23 20:40:10;;;;;;;0.55;0.30;;;8.90;99.90;;;;;;5110996;27;20036;-72
2023/12/23 20:42:36;;;;;;;1.35;0.50;;;8.90;99.90;;;;;;5075854;28;20028;-73
2023/12/23 20:45:02;;;;;;;0.52;0.30;;;8.90;99.90;;;;;;5115203;27;20044;-73
2023/12/23 20:47:27;;;;;;;1.80;0.57;;;8.90;99.90;;;;;;5096736;28;20493;-73
2023/12/23 20:49:53;;;;;;;0.90;0.30;;;8.90;99.90;;;;;;5078857;28;20043;-73
2023/12/23 20:52:18;;;;;;;1.55;0.30;;;8.90;99.90;;;;;;5073457;28;20130;-73
2023/12/23 20:54:44;;;;;;;0.70;0.32;;;8.90;99.90;;;;;;5109930;27;20118;-73
2023/12/23 20:57:10;;;;;;;1.42;0.70;;;8.90;99.90;;;;;;5077618;28;20032;-73
2023/12/23 20:59:36;;;;;;;0.68;0.30;;;8.90;99.90;;;;;;5110049;27;20062;-74
2023/12/23 21:02:02;;;;;;;1.25;0.32;;;8.90;99.90;;;;;;5079677;28;20044;-73
2023/12/23 21:04:28;;;;;;;0.70;0.40;;;8.90;99.90;;;;;;5078136;28;20177;-74
2023/12/23 21:06:54;;;;;;;41.22;19.13;;;8.90;99.90;;;;;;5058097;28;20154;-73
2023/12/23 21:09:19;;;;;;;2.97;0.77;;;8.80;99.90;;;;;;5077140;28;20035;-74
2023/12/23 21:11:45;;;;;;;3.33;0.50;;;8.90;99.90;;;;;;5053021;28;20036;-73
2023/12/23 21:14:10;;;;;;;1.75;0.93;;;8.90;99.90;;;;;;5054908;28;20466;-74
2023/12/23 21:16:36;;;;;;;1.83;0.40;;;8.90;99.90;;;;;;5080285;28;20040;-73
2023/12/23 21:19:02;;;;;;;0.93;0.40;;;8.90;99.90;;;;;;5112100;28;20047;-73
2023/12/23 21:21:28;;;;;;;0.57;0.43;;;8.90;99.90;;;;;;5074898;28;20054;-73
2023/12/23 21:23:59;;;;;;;0.98;0.40;;;8.80;99.90;;;;;;5079710;28;20048;-73
2023/12/23 21:26:25;;;;;;;0.40;0.20;;;8.90;99.90;;;;;;5082188;28;20115;-73
2023/12/23 21:28:51;;;;;;;0.90;0.40;;;8.90;99.90;;;;;;5084287;28;20506;-73
2023/12/23 21:31:17;;;;;;;2.10;0.40;;;8.90;99.90;;;;;;5082609;28;20453;-73
2023/12/23 21:33:43;;;;;;;0.30;0.15;;;8.90;99.90;;;;;;5083141;28;20043;-73
2023/12/23 21:36:09;;;;;;;0.95;0.43;;;8.90;99.90;;;;;;5116967;27;20040;-73
2023/12/23 21:38:35;;;;;;;0.55;0.25;;;8.90;99.90;;;;;;5082430;28;20054;-73
2023/12/23 21:41:00;;;;;;;0.70;0.30;;;8.90;99.90;;;;;;5112102;27;20036;-73
2023/12/23 21:43:26;;;;;;;1.25;0.30;;;8.80;99.90;;;;;;5078780;28;20055;-73
2023/12/23 21:45:53;;;;;;;2.17;0.20;;;8.80;99.90;;;;;;5078978;28;20039;-73
2023/12/23 21:48:18;;;;;;;1.77;0.68;;;8.80;99.90;;;;;;5085540;28;20036;-75
2023/12/23 21:50:44;;;;;;;1.30;0.35;;;8.80;99.90;;;;;;5080013;28;20035;-73
2023/12/23 21:53:11;;;;;;;0.93;0.25;;;8.80;99.90;;;;;;5117576;27;20032;-73
2023/12/23 21:55:37;;;;;;;0.63;0.30;;;8.80;99.90;;;;;;5111052;27;20373;-73
2023/12/23 21:58:03;;;;;;;0.95;0.43;;;8.80;99.90;;;;;;5082617;28;20040;-74
2023/12/23 22:00:28;;;;;;;0.20;0.20;;;8.80;99.90;;;;;;5084487;28;20393;-74
2023/12/23 22:02:54;;;;;;;0.73;0.35;;;8.80;99.90;;;;;;5084896;28;20118;-73
2023/12/23 22:05:21;;;;;;;0.93;0.20;;;8.80;99.90;;;;;;5113524;27;20048;-74
2023/12/23 22:07:47;;;;;;;2.30;1.20;;;8.80;99.90;;;;;;5082924;28;20602;-73
2023/12/23 22:10:13;;;;;;;1.20;0.30;;;8.80;99.90;;;;;;5079512;28;20135;-74
2023/12/23 22:12:39;;;;;;;0.40;0.30;;;8.80;99.90;;;;;;5095711;28;20036;-74
2023/12/23 22:15:05;;;;;;;2.65;0.77;;;8.80;99.90;;;;;;5116694;27;21032;-74
2023/12/23 22:17:32;;;;;;;0.30;0.30;;;8.90;99.90;;;;;;5072896;28;20126;-73
2023/12/23 22:19:58;;;;;;;1.85;0.52;;;8.80;99.90;;;;;;5089046;28;20351;-73
2023/12/23 22:22:23;;;;;;;1.58;0.73;;;8.80;99.90;;;;;;5079273;28;20234;-73
2023/12/23 22:24:51;;;;;;;4.82;1.20;;;8.80;99.90;;;;;;5109965;27;20043;-73
2023/12/23 22:27:16;;;;;;;1.40;0.47;;;8.80;99.90;;;;;;5097823;28;20035;-73
2023/12/23 22:29:42;;;;;;;1.38;0.90;;;8.80;99.90;;;;;;5077562;28;20081;-73
2023/12/23 22:32:08;;;;;;;5.35;0.70;;;8.80;99.90;;;;;;5082931;28;20428;-73
2023/12/23 22:34:34;;;;;;;1.10;0.70;;;8.80;99.90;;;;;;5081518;28;20127;-73
2023/12/23 22:37:02;;;;;;;0.88;0.40;;;8.80;99.90;;;;;;5061719;28;20589;-73
2023/12/23 22:39:28;;;;;;;2.10;1.05;;;8.80;99.90;;;;;;5081074;28;20432;-73
2023/12/23 22:41:54;;;;;;;1.27;0.90;;;8.80;99.90;;;;;;5077880;28;20036;-74
2023/12/23 22:44:21;;;;;;;0.95;0.38;;;8.80;99.90;;;;;;5083391;28;20032;-73
